sensor_id;sensor_type;location;lat;lon;timestamp;P1;durP1;ratioP1;P2;durP2;ratioP2
31095;SDS011;17749;51.962;8.560;2022-12-07T06:02:52;17.05;;;9.35;;
31095;SDS011;17749;51.962;8.560;2022-12-07T06:05:18;14.80;;;8.82;;
31095;SDS011;17749;51.962;8.560;2022-12-07T06:07:45;18.52;;;10.95;;
31095;SDS011;17749;51.962;8.560;2022-12-07T06:10:12;21.33;;;9.07;;
31095;SDS011;17749;51.962;8.560;2022-12-07T06:12:39;19.40;;;10.00;;
31095;SDS011;17749;51.962;8.560;2022-12-07T06:15:09;17.23;;;8.98;;
31095;SDS011;17749;51.962;8.560;2022-12-07T06:17:36;17.95;;;9.35;;
31095;SDS011;17749;51.962;8.560;2022-12-07T06:20:03;18.85;;;9.18;;
31095;SDS011;17749;51.962;8.560;2022-12-07T06:22:31;17.02;;;9.60;;
31095;SDS011;17749;51.962;8.560;2022-12-07T06:24:57;25.25;;;8.85;;
31095;SDS011;17749;51.962;8.560;2022-12-07T06:27:24;26.45;;;9.23;;
31095;SDS011;17749;51.962;8.560;2022-12-07T06:29:51;15.10;;;9.00;;
31095;SDS011;17749;51.962;8.560;2022-12-07T06:32:18;16.27;;;9.30;;
31095;SDS011;17749;51.962;8.560;2022-12-07T06:34:45;18.27;;;9.07;;
31095;SDS011;17749;51.962;8.560;2022-12-07T06:37:13;16.45;;;8.90;;
31095;SDS011;17749;51.962;8.560;2022-12-07T06:39:40;18.23;;;9.30;;
31095;SDS011;17749;51.962;8.560;2022-12-07T06:42:07;16.60;;;8.75;;
31095;SDS011;17749;51.962;8.560;2022-12-07T06:44:34;18.55;;;9.15;;
31095;SDS011;17749;51.962;8.560;2022-12-07T06:47:01;16.88;;;8.90;;
31095;SDS011;17749;51.962;8.560;2022-12-07T06:49:48;15.38;;;8.32;;
31095;SDS011;17749;51.962;8.560;2022-12-07T06:52:15;17.02;;;9.45;;
31095;SDS011;17749;51.962;8.560;2022-12-07T06:54:43;17.25;;;8.88;;
31095;SDS011;17749;51.962;8.560;2022-12-07T06:57:31;14.90;;;8.38;;
31095;SDS011;17749;51.962;8.560;2022-12-07T06:59:58;16.27;;;8.00;;
31095;SDS011;17749;51.962;8.560;2022-12-07T07:02:25;11.15;;;7.28;;
31095;SDS011;17749;51.962;8.560;2022-12-07T07:04:52;14.70;;;7.75;;
31095;SDS011;17749;51.962;8.560;2022-12-07T07:07:19;15.70;;;9.05;;
31095;SDS011;17749;51.962;8.560;2022-12-07T07:09:46;15.30;;;7.85;;
31095;SDS011;17749;51.962;8.560;2022-12-07T07:12:13;22.48;;;8.00;;
31095;SDS011;17749;51.962;8.560;2022-12-07T07:14:40;15.00;;;8.13;;
31095;SDS011;17749;51.962;8.560;2022-12-07T07:17:07;18.85;;;7.57;;
31095;SDS011;17749;51.962;8.560;2022-12-07T07:19:34;13.30;;;7.15;;
31095;SDS011;17749;51.962;8.560;2022-12-07T07:22:01;17.15;;;7.55;;
31095;SDS011;17749;51.962;8.560;2022-12-07T07:24:28;17.00;;;7.72;;
31095;SDS011;17749;51.962;8.560;2022-12-07T07:26:55;17.80;;;7.70;;
31095;SDS011;17749;51.962;8.560;2022-12-07T07:29:22;15.35;;;8.00;;
31095;SDS011;17749;51.962;8.560;2022-12-07T07:31:49;14.30;;;7.40;;
31095;SDS011;17749;51.962;8.560;2022-12-07T07:34:16;17.75;;;7.97;;
31095;SDS011;17749;51.962;8.560;2022-12-07T07:36:43;12.30;;;6.95;;
31095;SDS011;17749;51.962;8.560;2022-12-07T07:39:10;13.73;;;7.60;;
31095;SDS011;17749;51.962;8.560;2022-12-07T07:41:39;13.70;;;7.43;;
31095;SDS011;17749;51.962;8.560;2022-12-07T07:44:11;17.02;;;7.70;;
31095;SDS011;17749;51.962;8.560;2022-12-07T07:46:38;24.27;;;11.57;;
31095;SDS011;17749;51.962;8.560;2022-12-07T07:49:05;22.65;;;8.70;;
31095;SDS011;17749;51.962;8.560;2022-12-07T07:51:32;17.48;;;8.18;;
31095;SDS011;17749;51.962;8.560;2022-12-07T07:53:59;19.73;;;8.02;;
31095;SDS011;17749;51.962;8.560;2022-12-07T07:56:26;16.25;;;8.13;;
31095;SDS011;17749;51.962;8.560;2022-12-07T07:58:53;15.57;;;7.22;;
31095;SDS011;17749;51.962;8.560;2022-12-07T08:01:21;11.32;;;6.72;;
31095;SDS011;17749;51.962;8.560;2022-12-07T08:03:48;13.88;;;7.68;;
31095;SDS011;17749;51.962;8.560;2022-12-07T08:06:15;14.60;;;7.85;;
31095;SDS011;17749;51.962;8.560;2022-12-07T08:08:42;17.67;;;8.45;;
31095;SDS011;17749;51.962;8.560;2022-12-07T08:11:09;15.52;;;7.32;;
31095;SDS011;17749;51.962;8.560;2022-12-07T08:13:37;14.77;;;7.90;;
31095;SDS011;17749;51.962;8.560;2022-12-07T08:16:05;14.52;;;7.65;;
31095;SDS011;17749;51.962;8.560;2022-12-07T08:18:38;10.77;;;6.85;;
31095;SDS011;17749;51.962;8.560;2022-12-07T08:21:06;15.85;;;7.80;;
31095;SDS011;17749;51.962;8.560;2022-12-07T08:23:36;13.07;;;6.55;;
31095;SDS011;17749;51.962;8.560;2022-12-07T08:26:06;12.90;;;7.20;;
31095;SDS011;17749;51.962;8.560;2022-12-07T08:31:05;16.25;;;7.25;;
31095;SDS011;17749;51.962;8.560;2022-12-07T08:33:34;14.43;;;7.07;;
31095;SDS011;17749;51.962;8.560;2022-12-07T08:36:03;17.55;;;6.85;;
31095;SDS011;17749;51.962;8.560;2022-12-07T08:38:35;12.13;;;6.68;;
31095;SDS011;17749;51.962;8.560;2022-12-07T08:41:02;11.55;;;6.93;;
31095;SDS011;17749;51.962;8.560;2022-12-07T08:43:29;14.65;;;7.63;;
31095;SDS011;17749;51.962;8.560;2022-12-07T08:47:00;16.02;;;7.53;;
31095;SDS011;17749;51.962;8.560;2022-12-07T08:49:10;13.80;;;7.25;;
31095;SDS011;17749;51.962;8.560;2022-12-07T08:51:40;14.48;;;7.65;;
31095;SDS011;17749;51.962;8.560;2022-12-07T08:54:09;19.20;;;7.63;;
31095;SDS011;17749;51.962;8.560;2022-12-07T08:56:39;13.60;;;6.38;;
31095;SDS011;17749;51.962;8.560;2022-12-07T08:59:07;7.68;;;5.53;;
31095;SDS011;17749;51.962;8.560;2022-12-07T09:01:34;12.63;;;6.35;;
31095;SDS011;17749;51.962;8.560;2022-12-07T09:04:02;12.02;;;6.72;;
31095;SDS011;17749;51.962;8.560;2022-12-07T09:06:28;8.65;;;6.25;;
31095;SDS011;17749;51.962;8.560;2022-12-07T09:08:56;12.80;;;5.88;;
31095;SDS011;17749;51.962;8.560;2022-12-07T09:11:25;21.63;;;7.60;;
31095;SDS011;17749;51.962;8.560;2022-12-07T09:13:54;10.98;;;6.93;;
31095;SDS011;17749;51.962;8.560;2022-12-07T09:16:21;16.30;;;6.53;;
31095;SDS011;17749;51.962;8.560;2022-12-07T09:18:48;17.67;;;6.78;;
31095;SDS011;17749;51.962;8.560;2022-12-07T09:21:15;9.65;;;6.82;;
31095;SDS011;17749;51.962;8.560;2022-12-07T09:23:42;9.82;;;5.25;;
31095;SDS011;17749;51.962;8.560;2022-12-07T09:26:09;16.08;;;6.65;;
31095;SDS011;17749;51.962;8.560;2022-12-07T09:28:37;12.98;;;6.22;;
31095;SDS011;17749;51.962;8.560;2022-12-07T09:31:04;12.02;;;5.60;;
31095;SDS011;17749;51.962;8.560;2022-12-07T09:34:08;14.55;;;5.57;;
31095;SDS011;17749;51.962;8.560;2022-12-07T09:36:35;15.57;;;5.93;;
31095;SDS011;17749;51.962;8.560;2022-12-07T09:39:02;12.95;;;5.53;;
31095;SDS011;17749;51.962;8.560;2022-12-07T09:41:31;11.33;;;6.20;;
31095;SDS011;17749;51.962;8.560;2022-12-07T09:44:06;13.20;;;5.97;;
31095;SDS011;17749;51.962;8.560;2022-12-07T09:46:37;16.33;;;5.88;;
31095;SDS011;17749;51.962;8.560;2022-12-07T09:49:11;14.50;;;5.63;;
31095;SDS011;17749;51.962;8.560;2022-12-07T09:51:41;13.20;;;6.00;;
31095;SDS011;17749;51.962;8.560;2022-12-07T09:54:09;13.60;;;5.93;;
31095;SDS011;17749;51.962;8.560;2022-12-07T09:56:40;18.15;;;6.70;;
31095;SDS011;17749;51.962;8.560;2022-12-07T09:59:09;17.27;;;6.28;;
31095;SDS011;17749;51.962;8.560;2022-12-07T10:01:43;12.32;;;5.43;;
31095;SDS011;17749;51.962;8.560;2022-12-07T10:06:43;9.05;;;4.95;;
31095;SDS011;17749;51.962;8.560;2022-12-07T10:09:11;9.13;;;4.45;;
31095;SDS011;17749;51.962;8.560;2022-12-07T10:14:34;12.85;;;5.35;;
31095;SDS011;17749;51.962;8.560;2022-12-07T10:17:28;11.95;;;5.80;;
31095;SDS011;17749;51.962;8.560;2022-12-07T10:20:10;13.88;;;4.20;;
31095;SDS011;17749;51.962;8.560;2022-12-07T10:22:52;17.40;;;6.18;;
31095;SDS011;17749;51.962;8.560;2022-12-07T10:25:22;8.77;;;4.90;;
31095;SDS011;17749;51.962;8.560;2022-12-07T10:27:59;8.00;;;4.20;;
31095;SDS011;17749;51.962;8.560;2022-12-07T10:33:32;11.48;;;3.75;;
31095;SDS011;17749;51.962;8.560;2022-12-07T10:36:38;7.53;;;4.70;;
31095;SDS011;17749;51.962;8.560;2022-12-07T10:44:33;8.73;;;4.47;;
31095;SDS011;17749;51.962;8.560;2022-12-07T10:55:12;10.73;;;4.70;;
31095;SDS011;17749;51.962;8.560;2022-12-07T11:00:48;8.88;;;4.20;;
31095;SDS011;17749;51.962;8.560;2022-12-07T11:11:47;9.52;;;3.63;;
31095;SDS011;17749;51.962;8.560;2022-12-07T11:14:40;12.57;;;3.97;;
31095;SDS011;17749;51.962;8.560;2022-12-07T11:17:18;6.10;;;3.63;;
31095;SDS011;17749;51.962;8.560;2022-12-07T11:20:01;14.05;;;3.78;;
31095;SDS011;17749;51.962;8.560;2022-12-07T11:33:47;8.93;;;4.05;;
31095;SDS011;17749;51.962;8.560;2022-12-07T11:39:03;11.70;;;3.70;;
31095;SDS011;17749;51.962;8.560;2022-12-07T11:41:38;7.60;;;3.22;;
31095;SDS011;17749;51.962;8.560;2022-12-07T11:44:17;10.25;;;3.40;;
31095;SDS011;17749;51.962;8.560;2022-12-07T11:47:09;12.10;;;3.55;;
31095;SDS011;17749;51.962;8.560;2022-12-07T11:49:45;7.90;;;3.03;;
31095;SDS011;17749;51.962;8.560;2022-12-07T11:55:57;8.57;;;3.30;;
31095;SDS011;17749;51.962;8.560;2022-12-07T11:58:39;6.90;;;3.00;;
31095;SDS011;17749;51.962;8.560;2022-12-07T12:06:43;15.73;;;6.20;;
31095;SDS011;17749;51.962;8.560;2022-12-07T12:15:36;10.15;;;3.58;;
31095;SDS011;17749;51.962;8.560;2022-12-07T12:18:26;4.88;;;2.15;;
31095;SDS011;17749;51.962;8.560;2022-12-07T12:21:12;8.50;;;1.77;;
31095;SDS011;17749;51.962;8.560;2022-12-07T12:23:46;9.15;;;2.08;;
31095;SDS011;17749;51.962;8.560;2022-12-07T12:26:18;9.60;;;1.80;;
31095;SDS011;17749;51.962;8.560;2022-12-07T12:28:52;5.55;;;2.00;;
31095;SDS011;17749;51.962;8.560;2022-12-07T12:33:56;6.05;;;2.75;;
31095;SDS011;17749;51.962;8.560;2022-12-07T12:36:26;6.10;;;1.80;;
31095;SDS011;17749;51.962;8.560;2022-12-07T12:54:24;20.48;;;2.75;;
31095;SDS011;17749;51.962;8.560;2022-12-07T13:04:56;6.38;;;2.00;;
31095;SDS011;17749;51.962;8.560;2022-12-07T13:20:52;5.32;;;1.77;;
31095;SDS011;17749;51.962;8.560;2022-12-07T13:23:21;8.48;;;1.65;;
31095;SDS011;17749;51.962;8.560;2022-12-07T13:28:23;8.32;;;2.40;;
31095;SDS011;17749;51.962;8.560;2022-12-07T13:33:32;14.77;;;5.20;;
31095;SDS011;17749;51.962;8.560;2022-12-07T13:36:01;22.00;;;7.90;;
31095;SDS011;17749;51.962;8.560;2022-12-07T13:38:29;12.35;;;4.20;;
31095;SDS011;17749;51.962;8.560;2022-12-07T13:40:59;6.68;;;2.63;;
31095;SDS011;17749;51.962;8.560;2022-12-07T13:43:27;8.10;;;1.95;;
31095;SDS011;17749;51.962;8.560;2022-12-07T13:45:57;22.60;;;3.05;;
31095;SDS011;17749;51.962;8.560;2022-12-07T13:48:31;10.40;;;2.90;;
31095;SDS011;17749;51.962;8.560;2022-12-07T13:51:02;11.30;;;2.80;;
31095;SDS011;17749;51.962;8.560;2022-12-07T13:53:30;8.53;;;2.13;;
31095;SDS011;17749;51.962;8.560;2022-12-07T13:55:57;7.38;;;2.45;;
31095;SDS011;17749;51.962;8.560;2022-12-07T13:58:25;4.47;;;2.35;;
31095;SDS011;17749;51.962;8.560;2022-12-07T14:00:56;6.07;;;2.22;;
31095;SDS011;17749;51.962;8.560;2022-12-07T14:03:25;11.52;;;2.53;;
31095;SDS011;17749;51.962;8.560;2022-12-07T14:08:47;6.50;;;2.58;;
31095;SDS011;17749;51.962;8.560;2022-12-07T14:11:19;8.07;;;2.92;;
31095;SDS011;17749;51.962;8.560;2022-12-07T14:13:56;8.38;;;2.67;;
31095;SDS011;17749;51.962;8.560;2022-12-07T14:16:30;8.88;;;4.50;;
31095;SDS011;17749;51.962;8.560;2022-12-07T14:18:59;9.18;;;3.78;;
31095;SDS011;17749;51.962;8.560;2022-12-07T14:21:30;8.23;;;3.90;;
31095;SDS011;17749;51.962;8.560;2022-12-07T14:24:18;11.65;;;5.55;;
31095;SDS011;17749;51.962;8.560;2022-12-07T14:26:47;10.85;;;3.50;;
31095;SDS011;17749;51.962;8.560;2022-12-07T14:31:49;5.13;;;3.28;;
31095;SDS011;17749;51.962;8.560;2022-12-07T14:34:16;5.25;;;3.25;;
31095;SDS011;17749;51.962;8.560;2022-12-07T14:36:42;14.50;;;5.60;;
31095;SDS011;17749;51.962;8.560;2022-12-07T14:39:09;10.05;;;3.88;;
31095;SDS011;17749;51.962;8.560;2022-12-07T14:41:39;9.18;;;3.78;;
31095;SDS011;17749;51.962;8.560;2022-12-07T14:44:18;5.85;;;3.50;;
31095;SDS011;17749;51.962;8.560;2022-12-07T14:46:51;6.80;;;3.38;;
31095;SDS011;17749;51.962;8.560;2022-12-07T14:49:39;7.50;;;4.03;;
31095;SDS011;17749;51.962;8.560;2022-12-07T14:52:05;7.97;;;2.55;;
31095;SDS011;17749;51.962;8.560;2022-12-07T14:55:00;10.82;;;2.80;;
31095;SDS011;17749;51.962;8.560;2022-12-07T14:57:27;4.90;;;2.83;;
31095;SDS011;17749;51.962;8.560;2022-12-07T14:59:54;10.20;;;2.53;;
31095;SDS011;17749;51.962;8.560;2022-12-07T15:02:21;6.45;;;2.50;;
31095;SDS011;17749;51.962;8.560;2022-12-07T15:04:48;5.97;;;2.40;;
31095;SDS011;17749;51.962;8.560;2022-12-07T15:07:18;9.30;;;2.38;;
31095;SDS011;17749;51.962;8.560;2022-12-07T15:09:47;6.93;;;3.63;;
31095;SDS011;17749;51.962;8.560;2022-12-07T15:12:14;10.50;;;3.40;;
31095;SDS011;17749;51.962;8.560;2022-12-07T15:14:41;7.70;;;4.18;;
31095;SDS011;17749;51.962;8.560;2022-12-07T15:17:09;19.25;;;9.90;;
31095;SDS011;17749;51.962;8.560;2022-12-07T15:19:53;20.13;;;10.50;;
31095;SDS011;17749;51.962;8.560;2022-12-07T15:22:20;10.70;;;4.72;;
31095;SDS011;17749;51.962;8.560;2022-12-07T15:24:47;12.13;;;4.97;;
31095;SDS011;17749;51.962;8.560;2022-12-07T15:27:14;10.75;;;4.40;;
31095;SDS011;17749;51.962;8.560;2022-12-07T15:29:41;8.18;;;3.60;;
31095;SDS011;17749;51.962;8.560;2022-12-07T15:32:07;7.60;;;3.30;;
31095;SDS011;17749;51.962;8.560;2022-12-07T15:34:34;7.75;;;3.22;;
31095;SDS011;17749;51.962;8.560;2022-12-07T15:37:06;10.02;;;3.17;;
31095;SDS011;17749;51.962;8.560;2022-12-07T15:39:35;9.73;;;4.03;;
31095;SDS011;17749;51.962;8.560;2022-12-07T15:42:03;8.57;;;4.47;;
31095;SDS011;17749;51.962;8.560;2022-12-07T15:44:30;14.90;;;4.55;;
31095;SDS011;17749;51.962;8.560;2022-12-07T15:47:15;14.63;;;5.57;;
31095;SDS011;17749;51.962;8.560;2022-12-07T15:49:42;7.85;;;4.82;;
31095;SDS011;17749;51.962;8.560;2022-12-07T15:52:09;8.50;;;4.40;;
31095;SDS011;17749;51.962;8.560;2022-12-07T15:54:36;11.20;;;5.68;;
31095;SDS011;17749;51.962;8.560;2022-12-07T15:57:03;8.50;;;4.43;;
31095;SDS011;17749;51.962;8.560;2022-12-07T15:59:29;9.02;;;4.28;;
31095;SDS011;17749;51.962;8.560;2022-12-07T16:01:56;11.50;;;4.43;;
31095;SDS011;17749;51.962;8.560;2022-12-07T16:04:24;14.68;;;5.18;;
31095;SDS011;17749;51.962;8.560;2022-12-07T16:06:54;19.05;;;8.55;;
31095;SDS011;17749;51.962;8.560;2022-12-07T16:09:21;14.15;;;6.30;;
31095;SDS011;17749;51.962;8.560;2022-12-07T16:11:48;11.90;;;5.93;;
31095;SDS011;17749;51.962;8.560;2022-12-07T16:14:17;15.10;;;4.43;;
31095;SDS011;17749;51.962;8.560;2022-12-07T16:16:43;17.20;;;5.10;;
31095;SDS011;17749;51.962;8.560;2022-12-07T16:19:10;9.38;;;4.28;;
31095;SDS011;17749;51.962;8.560;2022-12-07T16:21:38;8.50;;;4.45;;
31095;SDS011;17749;51.962;8.560;2022-12-07T16:24:06;10.15;;;5.22;;
31095;SDS011;17749;51.962;8.560;2022-12-07T16:26:33;13.35;;;5.10;;
31095;SDS011;17749;51.962;8.560;2022-12-07T16:29:00;13.52;;;6.45;;
31095;SDS011;17749;51.962;8.560;2022-12-07T16:31:27;14.48;;;6.88;;
31095;SDS011;17749;51.962;8.560;2022-12-07T16:33:56;11.73;;;5.50;;
31095;SDS011;17749;51.962;8.560;2022-12-07T16:36:24;9.25;;;4.65;;
31095;SDS011;17749;51.962;8.560;2022-12-07T16:39:13;11.50;;;4.68;;
31095;SDS011;17749;51.962;8.560;2022-12-07T16:41:39;17.50;;;6.25;;
31095;SDS011;17749;51.962;8.560;2022-12-07T16:44:07;8.85;;;3.83;;
31095;SDS011;17749;51.962;8.560;2022-12-07T16:46:37;7.72;;;3.20;;
31095;SDS011;17749;51.962;8.560;2022-12-07T16:49:05;8.82;;;3.92;;
31095;SDS011;17749;51.962;8.560;2022-12-07T16:51:31;10.32;;;4.00;;
31095;SDS011;17749;51.962;8.560;2022-12-07T16:54:01;6.00;;;3.47;;
31095;SDS011;17749;51.962;8.560;2022-12-07T16:56:28;9.27;;;4.22;;
31095;SDS011;17749;51.962;8.560;2022-12-07T16:58:57;8.85;;;4.35;;
31095;SDS011;17749;51.962;8.560;2022-12-07T17:01:24;10.30;;;4.53;;
31095;SDS011;17749;51.962;8.560;2022-12-07T17:03:55;11.30;;;5.32;;
31095;SDS011;17749;51.962;8.560;2022-12-07T17:06:25;18.20;;;7.80;;
31095;SDS011;17749;51.962;8.560;2022-12-07T17:08:54;14.13;;;8.00;;
31095;SDS011;17749;51.962;8.560;2022-12-07T17:11:23;19.02;;;7.85;;
31095;SDS011;17749;51.962;8.560;2022-12-07T17:13:53;9.48;;;5.45;;
31095;SDS011;17749;51.962;8.560;2022-12-07T17:16:38;17.55;;;7.10;;
31095;SDS011;17749;51.962;8.560;2022-12-07T17:19:06;19.48;;;10.80;;
31095;SDS011;17749;51.962;8.560;2022-12-07T17:21:35;18.42;;;10.75;;
31095;SDS011;17749;51.962;8.560;2022-12-07T17:24:05;20.27;;;10.25;;
31095;SDS011;17749;51.962;8.560;2022-12-07T17:26:34;17.60;;;11.02;;
31095;SDS011;17749;51.962;8.560;2022-12-07T17:29:02;19.55;;;11.35;;
31095;SDS011;17749;51.962;8.560;2022-12-07T17:31:31;11.60;;;7.30;;
31095;SDS011;17749;51.962;8.560;2022-12-07T17:33:59;13.13;;;8.15;;
31095;SDS011;17749;51.962;8.560;2022-12-07T17:36:27;13.32;;;8.63;;
31095;SDS011;17749;51.962;8.560;2022-12-07T17:38:55;11.77;;;7.25;;
31095;SDS011;17749;51.962;8.560;2022-12-07T17:41:26;13.73;;;6.72;;
31095;SDS011;17749;51.962;8.560;2022-12-07T17:44:14;12.73;;;6.85;;
31095;SDS011;17749;51.962;8.560;2022-12-07T17:46:43;30.05;;;8.15;;
31095;SDS011;17749;51.962;8.560;2022-12-07T17:49:12;12.88;;;6.38;;
31095;SDS011;17749;51.962;8.560;2022-12-07T17:51:39;11.07;;;5.97;;
31095;SDS011;17749;51.962;8.560;2022-12-07T17:54:24;13.23;;;8.80;;
31095;SDS011;17749;51.962;8.560;2022-12-07T17:56:51;14.70;;;6.72;;
31095;SDS011;17749;51.962;8.560;2022-12-07T17:59:18;10.07;;;5.25;;
31095;SDS011;17749;51.962;8.560;2022-12-07T18:01:45;9.10;;;5.32;;
31095;SDS011;17749;51.962;8.560;2022-12-07T18:04:12;10.57;;;5.80;;
31095;SDS011;17749;51.962;8.560;2022-12-07T18:06:40;9.05;;;5.38;;
31095;SDS011;17749;51.962;8.560;2022-12-07T18:09:12;10.32;;;5.20;;
31095;SDS011;17749;51.962;8.560;2022-12-07T18:11:39;10.75;;;4.57;;
31095;SDS011;17749;51.962;8.560;2022-12-07T18:14:06;8.35;;;4.38;;
31095;SDS011;17749;51.962;8.560;2022-12-07T18:16:33;7.05;;;3.97;;
31095;SDS011;17749;51.962;8.560;2022-12-07T18:19:02;11.93;;;4.85;;
31095;SDS011;17749;51.962;8.560;2022-12-07T18:21:30;22.17;;;9.90;;
31095;SDS011;17749;51.962;8.560;2022-12-07T18:23:59;23.02;;;8.20;;
31095;SDS011;17749;51.962;8.560;2022-12-07T18:28:55;12.48;;;7.68;;
31095;SDS011;17749;51.962;8.560;2022-12-07T18:31:25;13.90;;;7.72;;
31095;SDS011;17749;51.962;8.560;2022-12-07T18:33:52;17.02;;;7.63;;
31095;SDS011;17749;51.962;8.560;2022-12-07T18:36:22;9.80;;;5.97;;
31095;SDS011;17749;51.962;8.560;2022-12-07T18:38:49;13.88;;;6.72;;
31095;SDS011;17749;51.962;8.560;2022-12-07T18:41:16;11.80;;;7.10;;
31095;SDS011;17749;51.962;8.560;2022-12-07T18:43:43;10.77;;;6.47;;
31095;SDS011;17749;51.962;8.560;2022-12-07T18:46:11;11.10;;;7.30;;
31095;SDS011;17749;51.962;8.560;2022-12-07T18:48:40;12.10;;;6.32;;
31095;SDS011;17749;51.962;8.560;2022-12-07T18:51:08;12.60;;;6.35;;
31095;SDS011;17749;51.962;8.560;2022-12-07T18:53:37;8.65;;;6.18;;
31095;SDS011;17749;51.962;8.560;2022-12-07T18:56:05;16.05;;;6.38;;
31095;SDS011;17749;51.962;8.560;2022-12-07T18:58:33;8.05;;;5.40;;
31095;SDS011;17749;51.962;8.560;2022-12-07T19:01:00;11.55;;;6.05;;
31095;SDS011;17749;51.962;8.560;2022-12-07T19:03:28;14.15;;;7.63;;
31095;SDS011;17749;51.962;8.560;2022-12-07T19:06:03;10.18;;;7.10;;
31095;SDS011;17749;51.962;8.560;2022-12-07T19:08:31;18.23;;;8.45;;
31095;SDS011;17749;51.962;8.560;2022-12-07T19:11:00;11.77;;;6.57;;
31095;SDS011;17749;51.962;8.560;2022-12-07T19:13:50;18.90;;;10.30;;
31095;SDS011;17749;51.962;8.560;2022-12-07T19:16:16;25.17;;;9.93;;
31095;SDS011;17749;51.962;8.560;2022-12-07T19:18:44;14.23;;;8.65;;
31095;SDS011;17749;51.962;8.560;2022-12-07T19:21:16;18.30;;;8.88;;
31095;SDS011;17749;51.962;8.560;2022-12-07T19:23:44;23.85;;;9.10;;
31095;SDS011;17749;51.962;8.560;2022-12-07T19:26:11;18.55;;;9.55;;
31095;SDS011;17749;51.962;8.560;2022-12-07T19:28:38;18.83;;;11.25;;
31095;SDS011;17749;51.962;8.560;2022-12-07T19:31:09;19.25;;;11.00;;
31095;SDS011;17749;51.962;8.560;2022-12-07T19:33:37;22.08;;;12.32;;
31095;SDS011;17749;51.962;8.560;2022-12-07T19:36:05;17.35;;;11.25;;
31095;SDS011;17749;51.962;8.560;2022-12-07T19:38:32;22.08;;;11.35;;
31095;SDS011;17749;51.962;8.560;2022-12-07T19:41:04;19.55;;;12.60;;
31095;SDS011;17749;51.962;8.560;2022-12-07T19:43:55;45.40;;;19.08;;
31095;SDS011;17749;51.962;8.560;2022-12-07T19:46:22;24.67;;;15.02;;
31095;SDS011;17749;51.962;8.560;2022-12-07T19:48:49;23.83;;;14.07;;
31095;SDS011;17749;51.962;8.560;2022-12-07T19:51:16;23.05;;;13.88;;
31095;SDS011;17749;51.962;8.560;2022-12-07T19:53:44;18.52;;;12.35;;
31095;SDS011;17749;51.962;8.560;2022-12-07T19:56:14;22.80;;;13.30;;
31095;SDS011;17749;51.962;8.560;2022-12-07T19:58:42;20.98;;;11.15;;
31095;SDS011;17749;51.962;8.560;2022-12-07T20:01:09;17.63;;;11.40;;
31095;SDS011;17749;51.962;8.560;2022-12-07T20:03:37;22.10;;;12.50;;
31095;SDS011;17749;51.962;8.560;2022-12-07T20:06:14;23.45;;;13.48;;
31095;SDS011;17749;51.962;8.560;2022-12-07T20:08:43;22.58;;;12.88;;
31095;SDS011;17749;51.962;8.560;2022-12-07T20:11:11;17.38;;;10.55;;
31095;SDS011;17749;51.962;8.560;2022-12-07T20:13:57;20.00;;;11.73;;
31095;SDS011;17749;51.962;8.560;2022-12-07T20:16:24;22.90;;;11.50;;
31095;SDS011;17749;51.962;8.560;2022-12-07T20:18:52;15.40;;;11.02;;
31095;SDS011;17749;51.962;8.560;2022-12-07T20:21:23;22.50;;;11.57;;
31095;SDS011;17749;51.962;8.560;2022-12-07T20:23:50;17.00;;;10.93;;
31095;SDS011;17749;51.962;8.560;2022-12-07T20:26:18;18.38;;;11.35;;
31095;SDS011;17749;51.962;8.560;2022-12-07T20:28:45;18.27;;;11.60;;
31095;SDS011;17749;51.962;8.560;2022-12-07T20:31:12;18.08;;;11.43;;
31095;SDS011;17749;51.962;8.560;2022-12-07T20:33:41;19.67;;;11.73;;
31095;SDS011;17749;51.962;8.560;2022-12-07T20:36:12;19.85;;;11.55;;
31095;SDS011;17749;51.962;8.560;2022-12-07T20:38:41;18.00;;;10.70;;
31095;SDS011;17749;51.962;8.560;2022-12-07T20:41:10;19.45;;;12.40;;
31095;SDS011;17749;51.962;8.560;2022-12-07T20:43:58;20.33;;;12.93;;
31095;SDS011;17749;51.962;8.560;2022-12-07T20:46:26;21.08;;;12.57;;
31095;SDS011;17749;51.962;8.560;2022-12-07T20:48:56;20.77;;;12.57;;
31095;SDS011;17749;51.962;8.560;2022-12-07T20:51:24;20.13;;;12.38;;
31095;SDS011;17749;51.962;8.560;2022-12-07T20:53:51;23.50;;;14.45;;
31095;SDS011;17749;51.962;8.560;2022-12-07T20:56:25;20.27;;;13.32;;
31095;SDS011;17749;51.962;8.560;2022-12-07T20:58:55;22.40;;;12.50;;
31095;SDS011;17749;51.962;8.560;2022-12-07T21:01:23;22.17;;;13.52;;
31095;SDS011;17749;51.962;8.560;2022-12-07T21:03:57;20.10;;;13.55;;
31095;SDS011;17749;51.962;8.560;2022-12-07T21:06:25;21.77;;;13.38;;
31095;SDS011;17749;51.962;8.560;2022-12-07T21:08:54;21.13;;;13.27;;
31095;SDS011;17749;51.962;8.560;2022-12-07T21:11:23;24.38;;;15.00;;
31095;SDS011;17749;51.962;8.560;2022-12-07T21:13:51;24.20;;;13.25;;
31095;SDS011;17749;51.962;8.560;2022-12-07T21:16:22;22.75;;;14.30;;
31095;SDS011;17749;51.962;8.560;2022-12-07T21:18:51;26.55;;;13.30;;
31095;SDS011;17749;51.962;8.560;2022-12-07T21:21:20;21.65;;;12.57;;
31095;SDS011;17749;51.962;8.560;2022-12-07T21:23:48;19.90;;;13.27;;
31095;SDS011;17749;51.962;8.560;2022-12-07T21:26:17;19.52;;;14.40;;
31095;SDS011;17749;51.962;8.560;2022-12-07T21:28:46;22.20;;;14.20;;
